createdAt,value
2022-11-24T00:01:32.586Z,97448.47
2022-11-24T00:04:02.032Z,97451.16
2022-11-24T00:06:33.470Z,97451.97
2022-11-24T00:09:00.594Z,97451.94
2022-11-24T00:11:30.290Z,97459.84
2022-11-24T00:13:58.651Z,97455.44
2022-11-24T00:16:28.348Z,97454.72
2022-11-24T00:18:57.004Z,97454.41
2022-11-24T00:21:24.904Z,97459.75
2022-11-24T00:23:52.437Z,97456.03
2022-11-24T00:26:25.083Z,97465.66
2022-11-24T00:28:53.538Z,97459.59
2022-11-24T00:31:23.259Z,97459.47
2022-11-24T00:33:51.918Z,97469.03
2022-11-24T00:36:23.849Z,97476.59
2022-11-24T00:38:55.818Z,97468.81
2022-11-24T00:41:23.992Z,97479.09
2022-11-24T00:43:51.324Z,97479.22
2022-11-24T00:46:18.815Z,97482.72
2022-11-24T00:48:46.417Z,97481.00
2022-11-24T00:51:15.187Z,97485.50
2022-11-24T00:53:45.614Z,97487.34
2022-11-24T00:56:12.909Z,97496.97
2022-11-24T00:58:40.767Z,97491.75
2022-11-24T01:01:11.917Z,97494.91
2022-11-24T01:03:39.046Z,97506.59
2022-11-24T01:06:12.110Z,97496.78
2022-11-24T01:08:39.863Z,97512.69
2022-11-24T01:11:27.788Z,97509.09
2022-11-24T01:13:58.034Z,97507.47
2022-11-24T01:16:35.695Z,97513.59
2022-11-24T01:19:04.152Z,97518.06
2022-11-24T01:21:31.058Z,97521.50
2022-11-24T01:23:58.048Z,97523.16
2022-11-24T01:26:24.792Z,97538.03
2022-11-24T01:28:58.963Z,97527.72
2022-11-24T01:31:26.942Z,97540.59
2022-11-24T01:33:54.584Z,97544.97
2022-11-24T01:36:24.286Z,97538.88
2022-11-24T01:38:51.724Z,97536.13
2022-11-24T01:41:23.939Z,97547.50
2022-11-24T01:43:52.586Z,97545.88
2022-11-24T01:46:19.311Z,97553.44
2022-11-24T01:48:52.116Z,97539.56
2022-11-24T01:51:25.448Z,97545.63
2022-11-24T01:54:09.395Z,97546.44
2022-11-24T01:56:40.456Z,97548.00
2022-11-24T01:59:11.560Z,97555.00
2022-11-24T02:01:38.328Z,97545.44
2022-11-24T02:04:14.183Z,97555.72
2022-11-24T02:06:43.966Z,97554.97
2022-11-24T02:09:22.029Z,97556.50
2022-11-24T02:11:48.823Z,97558.22
2022-11-24T02:14:19.775Z,97557.16
2022-11-24T02:16:50.647Z,97563.34
2022-11-24T02:19:41.729Z,97559.00
2022-11-24T02:22:26.703Z,97562.50
2022-11-24T02:25:01.488Z,97561.72
2022-11-24T02:27:28.360Z,97567.81
2022-11-24T02:29:55.323Z,97564.44
2022-11-24T02:32:23.464Z,97565.16
2022-11-24T02:34:50.378Z,97564.25
2022-11-24T02:37:17.181Z,97571.31
2022-11-24T02:39:43.987Z,97569.63
2022-11-24T02:42:12.963Z,97580.16
2022-11-24T02:44:43.809Z,97579.53
2022-11-24T02:47:12.997Z,97579.38
2022-11-24T02:49:39.835Z,97581.94
2022-11-24T02:52:07.216Z,97575.94
2022-11-24T02:54:36.175Z,97587.91
2022-11-24T02:57:03.260Z,97577.53
2022-11-24T02:59:30.002Z,97580.91
2022-11-24T03:01:56.884Z,97578.34
2022-11-24T03:04:23.829Z,97580.19
2022-11-24T03:06:50.646Z,97580.06
2022-11-24T03:09:17.466Z,97575.75
2022-11-24T03:11:44.178Z,97567.00
2022-11-24T03:14:10.841Z,97562.50
2022-11-24T03:16:37.634Z,97570.28
2022-11-24T03:19:04.714Z,97574.81
2022-11-24T03:21:31.645Z,97577.31
2022-11-24T03:23:58.566Z,97569.47
2022-11-24T03:26:26.085Z,97580.72
2022-11-24T03:28:56.586Z,97582.53
2022-11-24T03:31:24.500Z,97580.03
2022-11-24T03:33:51.604Z,97593.84
2022-11-24T03:36:18.844Z,97594.66
2022-11-24T03:38:45.883Z,97602.31
2022-11-24T03:41:12.785Z,97603.75
2022-11-24T03:43:43.741Z,97608.25
2022-11-24T03:46:11.652Z,97607.97
2022-11-24T03:48:39.091Z,97607.72
2022-11-24T03:51:06.745Z,97599.09
2022-11-24T03:53:36.107Z,97605.06
2022-11-24T03:56:04.240Z,97609.38
2022-11-24T03:58:31.471Z,97611.84
2022-11-24T04:00:58.206Z,97617.91
2022-11-24T04:03:25.629Z,97618.66
2022-11-24T04:05:52.519Z,97628.19
2022-11-24T04:08:19.823Z,97618.44
2022-11-24T04:10:50.897Z,97623.56
2022-11-24T04:13:19.250Z,97620.09
2022-11-24T04:15:45.883Z,97628.56
2022-11-24T04:18:13.680Z,97624.34
2022-11-24T04:20:41.712Z,97634.00
2022-11-24T04:23:09.550Z,97634.06
2022-11-24T04:25:39.991Z,97629.69
2022-11-24T04:28:07.126Z,97629.50
2022-11-24T04:30:33.914Z,97628.88
2022-11-24T04:33:00.799Z,97635.69
2022-11-24T04:35:28.925Z,97633.13
2022-11-24T04:38:02.156Z,97635.53
2022-11-24T04:40:35.551Z,97645.06
2022-11-24T04:43:02.537Z,97644.84
2022-11-24T04:48:16.532Z,97664.97
2022-11-24T04:50:44.839Z,97655.31
2022-11-24T04:53:11.858Z,97665.84
2022-11-24T04:55:39.870Z,97671.72
2022-11-24T04:58:11.256Z,97674.16
2022-11-24T05:00:39.775Z,97678.56
2022-11-24T05:03:11.108Z,97682.00
2022-11-24T05:05:37.800Z,97689.06
2022-11-24T05:08:05.184Z,97700.97
2022-11-24T05:10:38.214Z,97698.44
2022-11-24T05:13:27.153Z,97692.44
2022-11-24T05:15:54.297Z,97693.38
2022-11-24T05:18:28.161Z,97695.91
2022-11-24T05:21:10.058Z,97695.97
2022-11-24T05:23:37.092Z,97700.31
2022-11-24T05:26:04.315Z,97700.44
2022-11-24T05:28:31.982Z,97709.25
2022-11-24T05:31:02.617Z,97711.03
2022-11-24T05:33:31.784Z,97717.81
2022-11-24T05:36:03.547Z,97709.84
2022-11-24T05:38:31.306Z,97715.88
2022-11-24T05:41:02.757Z,97708.13
2022-11-24T05:43:30.780Z,97722.81
2022-11-24T05:46:01.958Z,97721.88
2022-11-24T05:48:28.929Z,97724.47
2022-11-24T05:50:58.119Z,97721.16
2022-11-24T05:53:27.435Z,97720.00
2022-11-24T05:55:54.789Z,97724.53
2022-11-24T05:58:21.723Z,97730.75
2022-11-24T06:00:48.722Z,97735.25
2022-11-24T06:03:15.784Z,97738.75
2022-11-24T06:05:47.138Z,97744.72
2022-11-24T06:08:14.916Z,97738.75
2022-11-24T06:10:44.821Z,97743.09
2022-11-24T06:13:12.059Z,97741.38
2022-11-24T06:15:42.734Z,97734.66
2022-11-24T06:18:09.435Z,97738.19
2022-11-24T06:20:36.432Z,97739.53
2022-11-24T06:23:03.214Z,97738.69
2022-11-24T06:25:30.056Z,97744.88
2022-11-24T06:27:56.861Z,97740.41
2022-11-24T06:30:23.533Z,97747.50
2022-11-24T06:32:54.866Z,97753.59
2022-11-24T06:35:21.800Z,97758.81
2022-11-24T06:37:48.563Z,97750.06
2022-11-24T06:40:15.207Z,97754.69
2022-11-24T06:42:41.832Z,97756.41
2022-11-24T06:45:09.739Z,97755.56
2022-11-24T06:47:37.363Z,97764.31
2022-11-24T06:50:04.342Z,97758.31
2022-11-24T06:52:31.017Z,97760.78
2022-11-24T06:54:57.758Z,97760.78
2022-11-24T06:57:24.680Z,97766.00
2022-11-24T06:59:51.478Z,97771.19
2022-11-24T07:02:18.263Z,97776.53
2022-11-24T07:04:45.171Z,97777.34
2022-11-24T07:07:12.917Z,97777.16
2022-11-24T07:09:39.799Z,97786.56
2022-11-24T07:12:06.859Z,97790.69
2022-11-24T07:14:33.755Z,97799.16
2022-11-24T07:17:02.614Z,97796.31
2022-11-24T07:19:36.462Z,97797.00
2022-11-24T07:22:03.177Z,97802.94
2022-11-24T07:24:33.405Z,97811.50
2022-11-24T07:27:00.647Z,97815.69
2022-11-24T07:29:31.124Z,97817.34
2022-11-24T07:32:05.000Z,97818.94
2022-11-24T07:34:41.108Z,97823.31
2022-11-24T07:37:07.897Z,97817.16
2022-11-24T07:39:41.525Z,97825.84
2022-11-24T07:42:09.772Z,97820.63
2022-11-24T07:44:36.768Z,97825.69
2022-11-24T07:47:04.224Z,97828.91
2022-11-24T07:49:31.581Z,97834.19
2022-11-24T07:51:58.780Z,97823.50
2022-11-24T07:54:25.376Z,97838.25
2022-11-24T07:56:51.987Z,97837.13
2022-11-24T07:59:18.588Z,97841.19
2022-11-24T08:01:45.641Z,97835.09
2022-11-24T08:04:15.170Z,97842.06
2022-11-24T08:06:47.037Z,97841.19
2022-11-24T08:09:14.175Z,97849.03
2022-11-24T08:11:40.821Z,97848.88
2022-11-24T08:14:07.484Z,97849.66
2022-11-24T08:16:43.334Z,97846.13
2022-11-24T08:19:12.073Z,97848.66
2022-11-24T08:21:38.731Z,97845.88
2022-11-24T08:24:05.807Z,97852.69
2022-11-24T08:26:32.464Z,97845.97
2022-11-24T08:29:00.875Z,97854.22
2022-11-24T08:31:34.039Z,97848.28
2022-11-24T08:34:05.287Z,97849.03
2022-11-24T08:36:32.662Z,97842.88
2022-11-24T08:39:00.895Z,97839.69
2022-11-24T08:41:28.626Z,97849.25
2022-11-24T08:43:55.732Z,97851.47
2022-11-24T08:46:22.460Z,97849.47
2022-11-24T08:48:50.997Z,97852.91
2022-11-24T08:51:20.508Z,97852.25
2022-11-24T08:53:47.281Z,97851.78
2022-11-24T08:56:14.358Z,97851.13
2022-11-24T08:58:41.729Z,97853.56
2022-11-24T09:01:14.273Z,97853.56
2022-11-24T09:03:46.584Z,97857.56
2022-11-24T09:06:18.257Z,97853.88
2022-11-24T09:08:44.867Z,97856.75
2022-11-24T09:11:14.244Z,97856.47
2022-11-24T09:13:41.677Z,97859.31
2022-11-24T09:16:11.692Z,97858.16
2022-11-24T09:18:38.589Z,97865.16
2022-11-24T09:21:17.120Z,97858.53
2022-11-24T09:23:45.290Z,97866.88
2022-11-24T09:26:18.649Z,97863.16
2022-11-24T09:28:46.115Z,97863.34
2022-11-24T09:31:15.007Z,97868.34
2022-11-24T09:33:42.309Z,97867.50
2022-11-24T09:36:09.313Z,97870.47
2022-11-24T09:38:36.276Z,97870.09
2022-11-24T09:41:17.542Z,97878.69
2022-11-24T09:44:00.784Z,97886.09
2022-11-24T09:46:36.195Z,97873.88
2022-11-24T09:49:05.793Z,97877.06
2022-11-24T09:51:33.819Z,97889.53
2022-11-24T09:54:20.957Z,97893.47
2022-11-24T09:56:49.169Z,97901.06
2022-11-24T09:59:19.954Z,97915.69
2022-11-24T10:01:51.260Z,97905.03
2022-11-24T10:04:34.099Z,97906.50
2022-11-24T10:07:26.275Z,97903.78
2022-11-24T10:09:59.139Z,97907.28
2022-11-24T10:12:34.836Z,97907.44
2022-11-24T10:15:21.808Z,97903.22
2022-11-24T10:18:26.763Z,97920.00
2022-11-24T10:21:18.149Z,97917.28
2022-11-24T10:23:50.643Z,97917.56
2022-11-24T10:26:36.370Z,97923.78
2022-11-24T10:29:14.079Z,97925.47
2022-11-24T10:31:42.998Z,97927.28
2022-11-24T10:34:32.549Z,97930.50
2022-11-24T10:37:11.715Z,97925.34
2022-11-24T10:39:59.646Z,97935.69
2022-11-24T10:42:30.028Z,97933.59
2022-11-24T10:45:06.667Z,97932.53
2022-11-24T10:47:33.395Z,97933.25
2022-11-24T10:50:21.734Z,97928.91
2022-11-24T10:52:56.859Z,97928.97
2022-11-24T10:55:23.884Z,97930.41
2022-11-24T10:57:50.582Z,97917.50
2022-11-24T11:00:20.301Z,97921.50
2022-11-24T11:02:49.636Z,97926.75
2022-11-24T11:05:41.900Z,97927.66
2022-11-24T11:08:14.531Z,97935.91
2022-11-24T11:10:42.802Z,97934.25
2022-11-24T11:13:30.148Z,97936.19
2022-11-24T11:15:58.937Z,97945.72
2022-11-24T11:18:33.826Z,97946.53
2022-11-24T11:21:02.632Z,97943.84
2022-11-24T11:23:32.525Z,97951.66
2022-11-24T11:26:32.106Z,97949.41
2022-11-24T11:34:54.298Z,97953.22
2022-11-24T11:37:23.409Z,97948.94
2022-11-24T11:39:52.377Z,97954.88
2022-11-24T11:45:45.783Z,97958.47
2022-11-24T11:48:22.778Z,97953.25
2022-11-24T11:51:22.761Z,97946.94
2022-11-24T11:54:28.844Z,97950.13
2022-11-24T11:57:24.417Z,97954.34
2022-11-24T11:59:51.041Z,97964.03
2022-11-24T12:02:42.326Z,97960.25
2022-11-24T12:05:29.630Z,97961.38
2022-11-24T12:08:20.650Z,97966.63
2022-11-24T12:11:01.474Z,97969.28
2022-11-24T12:14:02.055Z,97965.03
2022-11-24T12:16:41.003Z,97972.06
2022-11-24T12:19:25.717Z,97974.69
2022-11-24T12:22:33.602Z,97985.56
2022-11-24T12:25:34.941Z,97988.34
2022-11-24T12:28:23.257Z,97984.59
2022-11-24T12:31:09.673Z,97991.09
2022-11-24T12:33:50.476Z,97995.25
2022-11-24T12:36:46.015Z,97990.09
2022-11-24T12:39:39.685Z,97991.06
2022-11-24T12:42:17.854Z,97989.41
2022-11-24T12:45:20.495Z,97987.56
2022-11-24T12:48:05.966Z,97999.47
2022-11-24T12:50:38.504Z,98002.59
2022-11-24T12:53:22.162Z,97997.94
2022-11-24T12:55:49.248Z,98006.84
2022-11-24T12:58:27.945Z,97997.31
2022-11-24T13:01:17.175Z,98003.53
2022-11-24T13:04:05.772Z,98008.00
2022-11-24T13:06:44.374Z,98009.72
2022-11-24T13:09:13.770Z,98014.31
2022-11-24T13:11:49.077Z,98014.78
2022-11-24T13:14:23.677Z,98015.88
2022-11-24T13:17:29.571Z,98019.41
2022-11-24T13:19:46.341Z,98019.31
2022-11-24T13:22:22.909Z,98020.16
2022-11-24T13:25:24.645Z,98029.91
2022-11-24T13:27:53.776Z,98025.66
2022-11-24T13:30:36.014Z,98031.63
2022-11-24T13:33:16.205Z,98036.81
2022-11-24T13:36:04.482Z,98038.44
2022-11-24T13:38:46.124Z,98041.47
2022-11-24T13:41:34.446Z,98046.97
2022-11-24T13:44:16.032Z,98036.97
2022-11-24T13:47:06.230Z,98041.47
2022-11-24T13:49:50.454Z,98042.28
2022-11-24T13:52:35.983Z,98048.63
2022-11-24T13:55:19.601Z,98057.34
2022-11-24T13:57:49.599Z,98057.28
2022-11-24T14:00:58.418Z,98064.09
2022-11-24T14:03:36.431Z,98059.47
2022-11-24T14:06:04.014Z,98056.53
2022-11-24T14:08:36.158Z,98058.25
2022-11-24T14:11:10.761Z,98061.38
2022-11-24T14:13:37.418Z,98068.75
2022-11-24T14:16:10.144Z,98067.19
2022-11-24T14:18:38.649Z,98069.63
2022-11-24T14:21:20.508Z,98072.56
2022-11-24T14:23:51.715Z,98078.28
2022-11-24T14:26:39.461Z,98087.09
2022-11-24T14:29:20.397Z,98092.66
2022-11-24T14:31:55.284Z,98082.34
2022-11-24T14:34:24.152Z,98080.72
2022-11-24T14:36:52.342Z,98081.94
2022-11-24T14:39:24.601Z,98087.25
2022-11-24T14:42:06.304Z,98096.03
2022-11-24T14:44:42.018Z,98093.63
2022-11-24T14:47:30.822Z,98095.34
2022-11-24T14:50:13.170Z,98112.00
2022-11-24T14:52:50.064Z,98106.16
2022-11-24T14:55:31.221Z,98107.91
2022-11-24T14:57:59.080Z,98107.91
2022-11-24T15:00:33.280Z,98108.00
2022-11-24T15:03:18.607Z,98111.34
2022-11-24T15:06:00.586Z,98116.63
2022-11-24T15:08:42.992Z,98118.66
2022-11-24T15:11:09.729Z,98108.19
2022-11-24T15:13:40.281Z,98114.72
2022-11-24T15:16:15.457Z,98120.13
2022-11-24T15:18:46.541Z,98123.88
2022-11-24T15:21:18.916Z,98129.97
2022-11-24T15:24:06.049Z,98126.78
2022-11-24T15:26:38.233Z,98126.00
2022-11-24T15:29:06.972Z,98128.72
2022-11-24T15:31:33.718Z,98127.81
2022-11-24T15:34:00.425Z,98129.56
2022-11-24T15:36:27.111Z,98126.16
2022-11-24T15:38:53.650Z,98129.84
2022-11-24T15:41:23.078Z,98138.59
2022-11-24T15:43:49.659Z,98133.41
2022-11-24T15:46:16.454Z,98138.66
2022-11-24T15:48:43.190Z,98142.00
2022-11-24T15:51:14.480Z,98133.34
2022-11-24T15:53:45.501Z,98142.66
2022-11-24T15:56:25.352Z,98151.47
2022-11-24T15:58:52.838Z,98157.63
2022-11-24T16:01:21.877Z,98159.31
2022-11-24T16:03:49.253Z,98164.41
2022-11-24T16:06:25.320Z,98158.16
2022-11-24T16:08:53.814Z,98162.41
2022-11-24T16:11:21.069Z,98155.50
2022-11-24T16:13:52.453Z,98158.09
2022-11-24T16:16:20.118Z,98166.06
2022-11-24T16:18:46.739Z,98164.41
2022-11-24T16:21:13.425Z,98165.97
2022-11-24T16:23:39.968Z,98164.06
2022-11-24T16:26:07.159Z,98172.97
2022-11-24T16:28:33.975Z,98165.16
2022-11-24T16:31:00.613Z,98164.19
2022-11-24T16:33:29.213Z,98172.88
2022-11-24T16:35:55.837Z,98170.25
2022-11-24T16:38:22.440Z,98175.56
2022-11-24T16:40:53.589Z,98172.88
2022-11-24T16:43:20.342Z,98174.44
2022-11-24T16:45:54.018Z,98167.56
2022-11-24T16:48:20.617Z,98179.69
2022-11-24T16:50:47.187Z,98178.03
2022-11-24T16:53:13.747Z,98180.59
2022-11-24T16:55:40.337Z,98191.13
2022-11-24T16:58:07.057Z,98197.91
2022-11-24T17:00:33.669Z,98186.78
2022-11-24T17:03:00.242Z,98196.28
2022-11-24T17:05:26.843Z,98193.56
2022-11-24T17:07:53.402Z,98189.38
2022-11-24T17:10:20.336Z,98195.56
2022-11-24T17:12:47.345Z,98198.97
2022-11-24T17:15:32.530Z,98192.88
2022-11-24T17:20:46.972Z,98198.09
2022-11-24T17:23:13.851Z,98195.31
2022-11-24T17:25:40.560Z,98200.66
2022-11-24T17:28:07.310Z,98205.81
2022-11-24T17:30:33.871Z,98198.91
2022-11-24T17:33:00.440Z,98208.47
2022-11-24T17:35:27.030Z,98202.97
2022-11-24T17:37:53.702Z,98211.81
2022-11-24T17:40:28.437Z,98208.41
2022-11-24T17:43:00.079Z,98211.97
2022-11-24T17:45:28.436Z,98213.84
2022-11-24T17:47:56.313Z,98219.81
2022-11-24T17:50:26.013Z,98223.19
2022-11-24T17:52:53.896Z,98217.28
2022-11-24T17:55:20.863Z,98225.97
2022-11-24T17:57:47.467Z,98232.16
2022-11-24T18:00:14.692Z,98232.88
2022-11-24T18:02:41.414Z,98237.34
2022-11-24T18:05:08.447Z,98239.91
2022-11-24T18:07:36.806Z,98232.91
2022-11-24T18:10:04.200Z,98233.78
2022-11-24T18:12:30.778Z,98239.16
2022-11-24T18:14:57.432Z,98240.75
2022-11-24T18:17:24.066Z,98236.56
2022-11-24T18:19:50.712Z,98237.31
2022-11-24T18:22:17.621Z,98238.97
2022-11-24T18:24:45.934Z,98238.16
2022-11-24T18:27:12.557Z,98239.13
2022-11-24T18:29:39.064Z,98241.69
2022-11-24T18:32:06.272Z,98243.47
2022-11-24T18:34:33.348Z,98241.69
2022-11-24T18:37:00.410Z,98239.00
2022-11-24T18:39:28.436Z,98243.44
2022-11-24T18:41:55.078Z,98246.91
2022-11-24T18:44:21.779Z,98241.69
2022-11-24T18:46:49.125Z,98239.00
2022-11-24T18:49:15.720Z,98244.28
2022-11-24T18:51:42.291Z,98242.50
2022-11-24T18:54:08.921Z,98245.13
2022-11-24T18:56:35.579Z,98245.84
2022-11-24T18:59:02.522Z,98239.72
2022-11-24T19:01:29.435Z,98245.97
2022-11-24T19:03:58.267Z,98239.78
2022-11-24T19:06:37.401Z,98243.09
2022-11-24T19:09:07.601Z,98244.09
2022-11-24T19:11:37.861Z,98244.97
2022-11-24T19:14:05.961Z,98237.31
2022-11-24T19:16:33.528Z,98251.94
2022-11-24T19:19:01.771Z,98256.28
2022-11-24T19:21:30.969Z,98246.66
2022-11-24T19:24:02.933Z,98256.47
2022-11-24T19:26:31.660Z,98266.91
2022-11-24T19:28:58.257Z,98264.25
2022-11-24T19:31:24.830Z,98268.88
2022-11-24T19:33:52.952Z,98270.50
2022-11-24T19:36:21.549Z,98273.22
2022-11-24T19:38:56.268Z,98280.19
2022-11-24T19:41:27.684Z,98281.06
2022-11-24T19:43:54.683Z,98286.06
2022-11-24T19:46:23.098Z,98286.84
2022-11-24T19:48:54.078Z,98292.28
2022-11-24T19:51:23.070Z,98293.31
2022-11-24T19:53:49.967Z,98295.94
2022-11-24T19:56:21.912Z,98293.31
2022-11-24T19:58:49.586Z,98303.53
2022-11-24T20:01:30.817Z,98309.72
2022-11-24T20:04:00.768Z,98305.34
2022-11-24T20:06:34.568Z,98310.66
2022-11-24T20:09:01.413Z,98307.00
2022-11-24T20:11:28.696Z,98305.34
2022-11-24T20:13:56.202Z,98307.81
2022-11-24T20:16:29.867Z,98309.66
2022-11-24T20:18:59.492Z,98307.78
2022-11-24T20:21:28.835Z,98304.38
2022-11-24T20:23:58.605Z,98314.19
2022-11-24T20:26:28.136Z,98314.25
2022-11-24T20:28:56.657Z,98315.06
2022-11-24T20:31:26.837Z,98322.00
2022-11-24T20:33:53.701Z,98320.34
2022-11-24T20:36:23.394Z,98319.53
2022-11-24T20:38:51.190Z,98328.28
2022-11-24T20:41:24.961Z,98320.34
2022-11-24T20:43:53.557Z,98321.34
2022-11-24T20:46:26.023Z,98331.66
2022-11-24T20:48:53.841Z,98329.22
2022-11-24T20:51:23.040Z,98321.25
2022-11-24T20:53:51.098Z,98315.22
2022-11-24T20:56:23.356Z,98316.94
2022-11-24T20:58:50.369Z,98326.56
2022-11-24T21:01:19.995Z,98321.28
2022-11-24T21:03:51.217Z,98318.59
2022-11-24T21:06:18.047Z,98325.59
2022-11-24T21:08:44.853Z,98317.00
2022-11-24T21:11:13.223Z,98318.75
2022-11-24T21:13:44.384Z,98315.19
2022-11-24T21:16:15.228Z,98318.63
2022-11-24T21:18:42.767Z,98316.03
2022-11-24T21:21:09.541Z,98321.41
2022-11-24T21:23:36.499Z,98323.25
2022-11-24T21:26:07.442Z,98322.44
2022-11-24T21:28:37.434Z,98334.72
2022-11-24T21:31:09.694Z,98337.56
2022-11-24T21:33:41.604Z,98335.06
2022-11-24T21:36:09.076Z,98336.09
2022-11-24T21:38:35.644Z,98331.00
2022-11-24T21:41:06.791Z,98335.34
2022-11-24T21:43:33.484Z,98333.78
2022-11-24T21:46:05.766Z,98341.78
2022-11-24T21:48:33.834Z,98339.31
2022-11-24T21:51:04.360Z,98341.16
2022-11-24T21:53:32.878Z,98340.38
2022-11-24T21:56:09.666Z,98345.63
2022-11-24T21:58:36.732Z,98339.69
2022-11-24T22:01:10.436Z,98349.34
2022-11-24T22:03:37.407Z,98348.44
2022-11-24T22:06:04.418Z,98347.66
2022-11-24T22:08:31.619Z,98358.22
2022-11-24T22:11:11.078Z,98354.69
2022-11-24T22:13:37.901Z,98360.00
2022-11-24T22:16:16.007Z,98357.38
2022-11-24T22:18:43.881Z,98360.03
2022-11-24T22:21:16.728Z,98356.63
2022-11-24T22:23:43.887Z,98360.91
2022-11-24T22:26:16.590Z,98361.84
2022-11-24T22:28:44.537Z,98359.25
2022-11-24T22:31:16.447Z,98362.81
2022-11-24T22:33:45.849Z,98362.81
2022-11-24T22:36:13.816Z,98368.03
2022-11-24T22:38:40.989Z,98359.41
2022-11-24T22:41:11.673Z,98367.22
2022-11-24T22:43:40.035Z,98370.72
2022-11-24T22:46:08.806Z,98370.72
2022-11-24T22:48:35.577Z,98375.97
2022-11-24T22:51:10.860Z,98362.91
2022-11-24T22:53:38.178Z,98361.22
2022-11-24T22:56:07.404Z,98360.38
2022-11-24T22:58:34.229Z,98365.56
2022-11-24T23:01:08.166Z,98362.97
2022-11-24T23:03:35.732Z,98358.66
2022-11-24T23:06:11.476Z,98365.59
2022-11-24T23:08:38.450Z,98365.56
2022-11-24T23:11:10.525Z,98362.09
2022-11-24T23:13:37.112Z,98359.53
2022-11-24T23:16:12.037Z,98363.84
2022-11-24T23:18:39.313Z,98369.06
2022-11-24T23:21:16.275Z,98363.84
2022-11-24T23:23:43.527Z,98365.59
2022-11-24T23:26:13.130Z,98368.19
2022-11-24T23:28:40.398Z,98364.75
2022-11-24T23:31:13.168Z,98369.06
2022-11-24T23:33:40.000Z,98365.59
2022-11-24T23:36:10.978Z,98364.78
2022-11-24T23:38:38.048Z,98363.00
2022-11-24T23:41:07.419Z,98358.72
2022-11-24T23:43:35.007Z,98357.84
2022-11-24T23:46:07.348Z,98363.03
2022-11-24T23:48:34.199Z,98362.19
2022-11-24T23:51:05.434Z,98362.19
2022-11-24T23:53:33.706Z,98358.69
2022-11-24T23:56:00.467Z,98351.78
2022-11-24T23:58:27.288Z,98351.78
